Time;durP1;ratioP1;P1;durP2;ratioP2;P2;SDS_P1;SDS_P2;PMS_P1;PMS_P2;Temp;Humidity;BMP_temperature;BMP_pressure;BME280_temperature;BME280_humidity;BME280_pressure;Samples;Min_cycle;Max_cycle;Signal;HPM_P1;HPM_P2
2023/07/07 00:00:03;;;;;;;;;;;14.80;59.10;;;;;;4054615;29;20009;-83
2023/07/07 00:02:23;;;;;;;;;;;14.70;59.70;;;;;;4056234;29;19931;-82
2023/07/07 00:04:43;;;;;;;;;;;14.80;60.00;;;;;;4073240;29;19925;-83
2023/07/07 00:07:02;;;;;;;;;;;14.70;60.10;;;;;;4061592;29;19931;-83
2023/07/07 00:09:21;;;;;;;;;;;14.70;61.60;;;;;;4070799;29;19965;-83
2023/07/07 00:11:40;;;;;;;;;;;14.70;60.70;;;;;;4065126;29;19923;-83
2023/07/07 00:13:52;;;;;;;;;;;14.60;61.00;;;;;;4047372;29;19955;-84
2023/07/07 00:15:59;;;;;;;;;;;14.70;60.20;;;;;;4067301;29;20422;-84
2023/07/07 00:18:03;;;;;;;;;;;14.60;59.90;;;;;;4049348;29;19930;-83
2023/07/07 00:20:24;;;;;;;;;;;14.60;59.70;;;;;;4062283;29;20029;-83
2023/07/07 00:22:31;;;;;;;;;;;14.60;60.40;;;;;;4034946;29;19941;-84
2023/07/07 00:24:54;;;;;;;;;;;14.60;60.30;;;;;;4053851;29;20241;-83
2023/07/07 00:27:15;;;;;;;;;;;14.50;60.60;;;;;;4056626;29;20589;-83
2023/07/07 00:29:18;;;;;;;;;;;14.50;61.40;;;;;;4066578;29;19980;-83
2023/07/07 00:31:39;;;;;;;;;;;14.50;61.40;;;;;;4058335;29;20401;-83
2023/07/07 00:33:59;;;;;;;;;;;14.40;61.60;;;;;;4069104;29;19914;-83
2023/07/07 00:36:22;;;;;;;;;;;14.40;61.50;;;;;;4070379;29;19915;-83
2023/07/07 00:38:43;;;;;;;;;;;14.40;61.90;;;;;;4069251;29;20488;-83
2023/07/07 00:41:04;;;;;;;;;;;14.30;62.80;;;;;;4068780;29;19922;-83
2023/07/07 00:43:25;;;;;;;;;;;14.30;62.60;;;;;;4065742;29;19915;-83
2023/07/07 00:45:45;;;;;;;;;;;14.30;62.50;;;;;;4067479;29;19919;-83
2023/07/07 00:48:17;;;;;;;;;;;14.20;62.60;;;;;;4066942;29;19915;-83
2023/07/07 00:50:44;;;;;;;;;;;14.20;62.20;;;;;;4065854;29;20493;-83
2023/07/07 00:53:06;;;;;;;;;;;14.20;62.00;;;;;;4065673;29;19923;-82
2023/07/07 00:55:39;;;;;;;;;;;14.10;61.50;;;;;;4064816;29;20522;-83
2023/07/07 00:58:01;;;;;;;;;;;14.10;62.30;;;;;;4064023;29;20442;-83
2023/07/07 01:00:22;;;;;;;;;;;14.00;62.90;;;;;;4043928;29;20286;-83
2023/07/07 01:02:47;;;;;;;;;;;14.10;62.90;;;;;;4063327;29;20374;-82
2023/07/07 01:05:08;;;;;;;;;;;14.00;63.50;;;;;;4063811;29;19923;-83
2023/07/07 01:07:31;;;;;;;;;;;14.00;62.90;;;;;;4049310;29;19923;-82
2023/07/07 01:09:52;;;;;;;;;;;13.90;62.50;;;;;;4053497;29;19919;-82
2023/07/07 01:12:13;;;;;;;;;;;13.90;62.50;;;;;;4060843;29;19919;-82
2023/07/07 01:14:33;;;;;;;;;;;13.90;62.20;;;;;;4066705;29;19919;-82
2023/07/07 01:17:06;;;;;;;;;;;13.80;63.00;;;;;;4066193;29;20347;-82
2023/07/07 01:19:48;;;;;;;;;;;13.80;63.30;;;;;;4067006;29;19916;-82
2023/07/07 01:22:27;;;;;;;;;;;13.80;63.30;;;;;;4064803;29;19922;-82
2023/07/07 01:24:52;;;;;;;;;;;13.80;63.40;;;;;;4067469;29;20468;-82
2023/07/07 01:27:12;;;;;;;;;;;13.80;63.40;;;;;;4066662;29;19919;-82
2023/07/07 01:29:33;;;;;;;;;;;13.70;63.30;;;;;;4053597;29;20388;-82
2023/07/07 01:31:57;;;;;;;;;;;13.80;63.30;;;;;;4066136;29;19915;-82
2023/07/07 01:34:18;;;;;;;;;;;13.60;63.90;;;;;;4068232;29;20418;-82
2023/07/07 01:36:38;;;;;;;;;;;13.70;63.80;;;;;;4066484;29;20948;-83
2023/07/07 01:38:59;;;;;;;;;;;13.60;63.50;;;;;;4065294;29;19990;-82
2023/07/07 01:41:22;;;;;;;;;;;13.70;64.00;;;;;;4062061;29;20446;-82
2023/07/07 01:43:55;;;;;;;;;;;13.50;64.40;;;;;;4066556;29;19925;-82
2023/07/07 01:46:16;;;;;;;;;;;13.50;63.90;;;;;;4066253;29;20666;-83
2023/07/07 01:48:57;;;;;;;;;;;13.60;63.70;;;;;;4064699;29;19915;-83
2023/07/07 01:51:19;;;;;;;;;;;13.60;63.50;;;;;;4062980;29;19927;-82
2023/07/07 01:53:40;;;;;;;;;;;13.50;63.60;;;;;;4066307;29;19923;-83
2023/07/07 01:56:01;;;;;;;;;;;13.50;63.80;;;;;;4065703;29;19926;-83
2023/07/07 01:58:22;;;;;;;;;;;13.40;63.70;;;;;;4062659;29;19984;-83
2023/07/07 02:00:43;;;;;;;;;;;13.50;63.90;;;;;;4061826;29;19970;-83
2023/07/07 02:03:08;;;;;;;;;;;13.40;64.40;;;;;;4064999;29;20408;-83
2023/07/07 02:05:29;;;;;;;;;;;13.50;64.50;;;;;;4067282;29;19919;-83
2023/07/07 02:07:49;;;;;;;;;;;13.40;64.20;;;;;;4068370;29;20014;-83
2023/07/07 02:10:10;;;;;;;;;;;13.40;63.90;;;;;;4066780;29;20766;-82
2023/07/07 02:12:31;;;;;;;;;;;13.40;64.40;;;;;;4067631;29;20340;-83
2023/07/07 02:14:50;;;;;;;;;;;13.30;64.80;;;;;;4076037;28;19913;-83
2023/07/07 02:17:09;;;;;;;;;;;13.30;64.40;;;;;;4084429;28;19939;-83
2023/07/07 02:19:29;;;;;;;;;;;13.30;64.20;;;;;;4087380;28;19926;-83
2023/07/07 02:21:48;;;;;;;;;;;13.30;64.30;;;;;;4083471;28;19930;-83
2023/07/07 02:24:10;;;;;;;;;;;13.30;64.30;;;;;;4070113;28;19953;-83
2023/07/07 02:26:31;;;;;;;;;;;13.30;64.30;;;;;;4066821;28;19959;-82
2023/07/07 02:28:51;;;;;;;;;;;13.20;64.10;;;;;;4080504;28;19992;-82
2023/07/07 02:31:11;;;;;;;;;;;13.30;64.40;;;;;;4067029;29;20379;-82
2023/07/07 02:33:33;;;;;;;;;;;13.20;64.20;;;;;;4064757;29;19930;-82
2023/07/07 02:35:52;;;;;;;;;;;13.20;64.10;;;;;;4055392;29;19922;-82
2023/07/07 02:38:12;;;;;;;;;;;13.20;64.90;;;;;;4066300;29;19923;-83
2023/07/07 02:40:32;;;;;;;;;;;13.30;64.30;;;;;;4065350;29;19922;-83
2023/07/07 02:42:51;;;;;;;;;;;13.20;63.90;;;;;;4066025;29;19922;-82
2023/07/07 02:45:10;;;;;;;;;;;13.20;64.80;;;;;;4067679;29;19942;-82
2023/07/07 02:47:32;;;;;;;;;;;13.20;64.00;;;;;;4063056;29;19995;-82
2023/07/07 02:49:51;;;;;;;;;;;13.20;64.10;;;;;;4065136;29;20677;-82
2023/07/07 02:52:11;;;;;;;;;;;13.20;64.20;;;;;;4059967;29;19946;-82
2023/07/07 02:54:34;;;;;;;;;;;13.10;64.00;;;;;;4049411;29;19926;-83
2023/07/07 02:56:53;;;;;;;;;;;13.10;64.00;;;;;;4052416;29;19943;-82
2023/07/07 02:59:12;;;;;;;;;;;13.10;64.10;;;;;;4065826;29;19931;-83
2023/07/07 03:01:32;;;;;;;;;;;13.10;64.10;;;;;;4064257;29;19999;-82
2023/07/07 03:03:56;;;;;;;;;;;13.10;64.10;;;;;;4065266;29;19926;-82
2023/07/07 03:06:22;;;;;;;;;;;13.10;64.00;;;;;;4047768;29;19930;-82
2023/07/07 03:08:41;;;;;;;;;;;13.00;64.10;;;;;;4067468;29;19926;-82
2023/07/07 03:11:05;;;;;;;;;;;13.10;63.80;;;;;;4065855;29;19926;-82
2023/07/07 03:13:24;;;;;;;;;;;13.00;64.10;;;;;;4061993;29;20199;-84
2023/07/07 03:15:44;;;;;;;;;;;13.00;64.20;;;;;;4063153;29;20031;-82
2023/07/07 03:18:03;;;;;;;;;;;13.10;64.20;;;;;;4064529;29;19922;-82
2023/07/07 03:20:26;;;;;;;;;;;13.00;64.10;;;;;;4054644;29;20059;-82
2023/07/07 03:22:48;;;;;;;;;;;13.00;64.90;;;;;;4066379;29;19921;-82
2023/07/07 03:25:09;;;;;;;;;;;12.90;64.80;;;;;;4064756;29;19934;-82
2023/07/07 03:27:28;;;;;;;;;;;13.00;64.30;;;;;;4064937;29;20292;-82
2023/07/07 03:29:48;;;;;;;;;;;13.00;64.10;;;;;;4063096;29;19930;-82
2023/07/07 03:32:11;;;;;;;;;;;12.90;64.10;;;;;;4062248;29;19926;-82
2023/07/07 03:34:30;;;;;;;;;;;13.00;65.30;;;;;;4059830;29;20064;-82
2023/07/07 03:36:53;;;;;;;;;;;13.10;65.10;;;;;;4063918;29;19926;-82
2023/07/07 03:39:12;;;;;;;;;;;13.00;64.50;;;;;;4050272;29;19966;-81
2023/07/07 03:41:31;;;;;;;;;;;13.00;65.30;;;;;;4064377;29;20331;-82
2023/07/07 03:43:53;;;;;;;;;;;13.00;64.70;;;;;;4062299;29;19934;-82
2023/07/07 03:46:12;;;;;;;;;;;13.00;64.50;;;;;;4061623;29;20430;-82
2023/07/07 03:48:31;;;;;;;;;;;13.00;65.10;;;;;;4061209;29;20075;-82
2023/07/07 03:50:58;;;;;;;;;;;13.00;65.30;;;;;;4063197;29;20395;-83
2023/07/07 03:53:18;;;;;;;;;;;13.00;65.10;;;;;;4062419;29;20066;-82
2023/07/07 03:55:37;;;;;;;;;;;13.00;65.00;;;;;;4062856;29;19962;-81
2023/07/07 03:57:57;;;;;;;;;;;13.10;64.50;;;;;;4062241;29;19923;-83
2023/07/07 04:00:19;;;;;;;;;;;13.00;65.50;;;;;;4062777;29;19926;-82
2023/07/07 04:02:43;;;;;;;;;;;13.10;65.90;;;;;;4067592;29;20508;-83
2023/07/07 04:05:02;;;;;;;;;;;13.00;68.50;;;;;;4066080;29;19990;-83
2023/07/07 04:07:22;;;;;;;;;;;13.10;67.60;;;;;;4066207;29;20051;-83
2023/07/07 04:09:41;;;;;;;;;;;13.10;67.30;;;;;;4054242;29;19987;-84
2023/07/07 04:12:06;;;;;;;;;;;13.10;69.10;;;;;;4069144;29;20378;-82
2023/07/07 04:14:29;;;;;;;;;;;13.10;69.00;;;;;;4064644;29;20358;-83
2023/07/07 04:16:48;;;;;;;;;;;13.30;69.30;;;;;;4063701;29;20457;-84
2023/07/07 04:19:08;;;;;;;;;;;13.30;69.40;;;;;;4067944;29;19931;-82
2023/07/07 04:21:28;;;;;;;;;;;13.30;69.20;;;;;;4068060;29;19925;-83
2023/07/07 04:23:51;;;;;;;;;;;13.30;69.50;;;;;;4051629;29;20119;-83
2023/07/07 04:26:14;;;;;;;;;;;13.40;69.30;;;;;;4054207;29;19929;-83
2023/07/07 04:28:35;;;;;;;;;;;13.40;68.50;;;;;;4056306;29;19978;-84
2023/07/07 04:30:56;;;;;;;;;;;13.50;68.70;;;;;;4070547;29;19930;-84
2023/07/07 04:33:15;;;;;;;;;;;13.70;70.10;;;;;;4068352;29;19926;-83
2023/07/07 04:35:40;;;;;;;;;;;13.60;69.10;;;;;;4068487;29;19926;-83
2023/07/07 04:37:59;;;;;;;;;;;13.80;69.20;;;;;;4065778;29;19943;-85
2023/07/07 04:40:19;;;;;;;;;;;13.80;69.10;;;;;;4067323;29;19926;-84
2023/07/07 04:42:38;;;;;;;;;;;13.90;68.50;;;;;;4068750;29;20051;-84
2023/07/07 04:44:57;;;;;;;;;;;13.90;68.70;;;;;;4068130;29;19987;-83
2023/07/07 04:47:17;;;;;;;;;;;13.90;69.00;;;;;;4052267;29;19983;-84
2023/07/07 04:49:36;;;;;;;;;;;13.90;69.40;;;;;;4067911;29;20319;-84
2023/07/07 04:51:55;;;;;;;;;;;14.10;69.50;;;;;;4068281;29;19929;-84
2023/07/07 04:54:14;;;;;;;;;;;14.10;70.10;;;;;;4069221;29;20082;-83
2023/07/07 04:56:37;;;;;;;;;;;14.30;70.10;;;;;;4071151;29;19929;-84
2023/07/07 04:58:56;;;;;;;;;;;14.40;71.00;;;;;;4067407;29;19921;-84
2023/07/07 05:01:17;;;;;;;;;;;14.40;70.90;;;;;;4066771;29;19982;-84
2023/07/07 05:03:37;;;;;;;;;;;14.50;70.00;;;;;;4067481;29;19982;-84
2023/07/07 05:05:57;;;;;;;;;;;14.60;70.40;;;;;;4067045;29;20667;-84
2023/07/07 05:08:16;;;;;;;;;;;14.70;69.40;;;;;;4068300;29;19926;-84
2023/07/07 05:10:35;;;;;;;;;;;14.70;69.80;;;;;;4074607;29;20154;-83
2023/07/07 05:12:55;;;;;;;;;;;14.80;69.60;;;;;;4071767;29;19930;-82
2023/07/07 05:15:14;;;;;;;;;;;14.90;68.80;;;;;;4063836;29;19946;-83
2023/07/07 05:17:33;;;;;;;;;;;15.00;69.60;;;;;;4060618;29;19966;-83
2023/07/07 05:19:52;;;;;;;;;;;15.20;68.80;;;;;;4059750;29;19939;-82
2023/07/07 05:22:12;;;;;;;;;;;15.20;69.40;;;;;;4061884;29;20142;-82
2023/07/07 05:24:31;;;;;;;;;;;15.30;68.20;;;;;;4062298;29;19926;-82
2023/07/07 05:26:50;;;;;;;;;;;15.30;68.00;;;;;;4065606;29;19933;-83
2023/07/07 05:29:10;;;;;;;;;;;15.40;67.70;;;;;;4067112;29;20578;-83
2023/07/07 05:31:29;;;;;;;;;;;15.50;67.60;;;;;;4063790;29;20638;-83
2023/07/07 05:33:50;;;;;;;;;;;15.50;67.90;;;;;;4050219;29;20037;-82
2023/07/07 05:36:09;;;;;;;;;;;15.50;67.00;;;;;;4065433;29;20460;-83
2023/07/07 05:38:28;;;;;;;;;;;15.60;66.80;;;;;;4051191;29;19971;-82
2023/07/07 05:40:48;;;;;;;;;;;15.60;67.20;;;;;;4064015;29;19929;-83
2023/07/07 05:43:10;;;;;;;;;;;15.80;66.40;;;;;;4061696;29;19970;-82
2023/07/07 05:45:29;;;;;;;;;;;15.70;66.70;;;;;;4049898;29;20002;-82
2023/07/07 05:47:48;;;;;;;;;;;15.80;66.20;;;;;;4062386;29;20602;-81
2023/07/07 05:50:08;;;;;;;;;;;15.90;66.20;;;;;;4061998;29;19926;-82
2023/07/07 05:52:27;;;;;;;;;;;15.90;65.70;;;;;;4063048;29;20295;-82
2023/07/07 05:54:47;;;;;;;;;;;16.00;65.70;;;;;;4047138;29;19975;-82
2023/07/07 05:57:06;;;;;;;;;;;16.10;66.10;;;;;;4060975;29;20482;-82
2023/07/07 05:59:26;;;;;;;;;;;16.10;65.30;;;;;;4063470;29;19926;-83
2023/07/07 06:01:45;;;;;;;;;;;16.20;65.70;;;;;;4048533;29;20427;-83
2023/07/07 06:04:04;;;;;;;;;;;16.30;65.70;;;;;;4062779;29;19978;-83
2023/07/07 06:06:24;;;;;;;;;;;16.40;65.30;;;;;;4062427;29;20628;-82
2023/07/07 06:08:43;;;;;;;;;;;16.50;65.90;;;;;;4065548;29;19999;-82
2023/07/07 06:11:06;;;;;;;;;;;16.50;65.70;;;;;;4067336;29;20281;-82
2023/07/07 06:13:27;;;;;;;;;;;16.60;64.90;;;;;;4065335;29;19982;-83
2023/07/07 06:15:55;;;;;;;;;;;16.80;65.70;;;;;;4062995;29;20047;-82
2023/07/07 06:18:14;;;;;;;;;;;16.80;65.10;;;;;;4065852;29;19948;-82
2023/07/07 06:20:34;;;;;;;;;;;17.00;65.00;;;;;;4061510;29;19992;-82
2023/07/07 06:22:54;;;;;;;;;;;17.10;65.30;;;;;;4062168;29;19922;-82
2023/07/07 06:25:13;;;;;;;;;;;17.10;64.10;;;;;;4046381;29;20026;-82
2023/07/07 06:27:32;;;;;;;;;;;17.20;63.90;;;;;;4062238;29;20358;-83
2023/07/07 06:29:51;;;;;;;;;;;17.30;63.80;;;;;;4051039;29;20011;-82
2023/07/07 06:32:11;;;;;;;;;;;17.40;63.80;;;;;;4063019;29;19996;-82
2023/07/07 06:34:30;;;;;;;;;;;17.50;63.90;;;;;;4063388;29;19927;-84
2023/07/07 06:36:49;;;;;;;;;;;17.60;64.70;;;;;;4058160;29;19922;-82
2023/07/07 06:39:08;;;;;;;;;;;17.70;63.90;;;;;;4060302;29;19926;-82
2023/07/07 06:41:29;;;;;;;;;;;17.80;63.80;;;;;;4059220;29;20403;-81
2023/07/07 06:43:48;;;;;;;;;;;17.90;63.60;;;;;;4059103;29;19930;-82
2023/07/07 06:46:09;;;;;;;;;;;18.00;63.10;;;;;;4059656;29;19977;-82
2023/07/07 06:48:28;;;;;;;;;;;18.00;63.50;;;;;;4060440;29;19930;-82
2023/07/07 06:50:48;;;;;;;;;;;18.20;62.80;;;;;;4059904;29;19991;-82
2023/07/07 06:53:07;;;;;;;;;;;18.30;62.80;;;;;;4063311;29;19922;-82
2023/07/07 06:55:26;;;;;;;;;;;18.30;62.50;;;;;;4062241;29;20327;-82
2023/07/07 06:57:46;;;;;;;;;;;18.40;62.30;;;;;;4062770;29;20303;-83
2023/07/07 07:00:06;;;;;;;;;;;18.50;62.20;;;;;;4057483;29;19925;-83
2023/07/07 07:02:25;;;;;;;;;;;18.50;62.10;;;;;;4062317;29;19969;-82
2023/07/07 07:04:45;;;;;;;;;;;18.60;61.90;;;;;;4062629;29;20467;-83
2023/07/07 07:07:04;;;;;;;;;;;18.70;61.90;;;;;;4059058;29;20292;-82
2023/07/07 07:09:23;;;;;;;;;;;18.80;62.60;;;;;;4060900;29;19925;-82
2023/07/07 07:11:45;;;;;;;;;;;18.80;62.20;;;;;;4065092;29;19926;-83
2023/07/07 07:14:05;;;;;;;;;;;18.90;61.50;;;;;;4045848;29;20184;-81
2023/07/07 07:16:24;;;;;;;;;;;19.00;62.00;;;;;;4061120;29;20548;-82
2023/07/07 07:18:43;;;;;;;;;;;19.10;61.50;;;;;;4061188;29;19922;-82
2023/07/07 07:21:02;;;;;;;;;;;19.20;61.70;;;;;;4060525;29;19923;-83
2023/07/07 07:23:22;;;;;;;;;;;19.20;61.20;;;;;;4062907;29;19921;-82
2023/07/07 07:25:42;;;;;;;;;;;19.30;61.60;;;;;;4062556;29;20003;-82
2023/07/07 07:28:01;;;;;;;;;;;19.40;60.90;;;;;;4063297;29;19922;-82
2023/07/07 07:30:21;;;;;;;;;;;19.50;61.10;;;;;;4044485;29;19969;-83
2023/07/07 07:32:40;;;;;;;;;;;19.70;61.30;;;;;;4059287;29;19970;-82
2023/07/07 07:34:59;;;;;;;;;;;19.70;61.00;;;;;;4061025;29;19930;-82
2023/07/07 07:37:19;;;;;;;;;;;19.70;60.80;;;;;;4058231;29;20567;-83
2023/07/07 07:39:38;;;;;;;;;;;19.80;60.60;;;;;;4061716;29;20358;-81
2023/07/07 07:41:58;;;;;;;;;;;19.90;60.50;;;;;;4062831;29;20441;-82
2023/07/07 07:44:18;;;;;;;;;;;20.00;59.60;;;;;;4060551;29;20372;-83
2023/07/07 07:46:37;;;;;;;;;;;20.10;59.80;;;;;;4059490;29;19951;-82
2023/07/07 07:48:56;;;;;;;;;;;20.20;59.00;;;;;;4052658;29;20304;-82
2023/07/07 07:51:16;;;;;;;;;;;20.30;59.00;;;;;;4062514;29;20513;-82
2023/07/07 07:53:42;;;;;;;;;;;20.40;58.40;;;;;;4063081;29;19922;-81
2023/07/07 07:56:05;;;;;;;;;;;20.40;58.20;;;;;;4060152;29;19954;-83
2023/07/07 07:58:24;;;;;;;;;;;20.50;59.00;;;;;;4057862;29;20002;-82
2023/07/07 08:00:43;;;;;;;;;;;20.60;58.50;;;;;;4058507;29;19958;-82
2023/07/07 08:03:03;;;;;;;;;;;20.70;58.00;;;;;;4059402;29;20466;-83
2023/07/07 08:05:22;;;;;;;;;;;20.70;58.00;;;;;;4060053;29;20581;-83
2023/07/07 08:07:44;;;;;;;;;;;20.70;58.00;;;;;;4061240;29;19922;-83
2023/07/07 08:10:03;;;;;;;;;;;20.80;57.40;;;;;;4060885;29;19926;-83
2023/07/07 08:12:23;;;;;;;;;;;20.80;57.10;;;;;;4064339;29;20582;-82
2023/07/07 08:14:42;;;;;;;;;;;20.80;57.10;;;;;;4047313;29;19961;-83
2023/07/07 08:17:08;;;;;;;;;;;20.90;56.90;;;;;;4059279;29;19923;-83
2023/07/07 08:19:29;;;;;;;;;;;20.90;57.10;;;;;;4059507;29;19929;-84
2023/07/07 08:21:48;;;;;;;;;;;20.90;56.10;;;;;;4063256;29;19926;-83
2023/07/07 08:24:08;;;;;;;;;;;20.90;56.30;;;;;;4057240;29;20034;-82
2023/07/07 08:26:27;;;;;;;;;;;21.00;56.40;;;;;;4057129;29;20068;-83
2023/07/07 08:28:49;;;;;;;;;;;21.00;57.00;;;;;;4057887;29;19922;-84
2023/07/07 08:31:08;;;;;;;;;;;21.00;56.50;;;;;;4054937;29;19930;-82
2023/07/07 08:33:27;;;;;;;;;;;21.00;56.70;;;;;;4061047;29;20060;-83
2023/07/07 08:35:47;;;;;;;;;;;21.00;56.80;;;;;;4061222;29;20007;-83
2023/07/07 08:38:06;;;;;;;;;;;21.10;56.70;;;;;;4057364;29;20121;-84
2023/07/07 08:40:28;;;;;;;;;;;21.20;56.50;;;;;;4056518;29;19929;-82
2023/07/07 08:42:47;;;;;;;;;;;21.30;56.70;;;;;;4058012;29;20323;-82
2023/07/07 08:45:14;;;;;;;;;;;21.30;56.40;;;;;;4044481;29;19950;-82
2023/07/07 08:47:39;;;;;;;;;;;21.40;55.90;;;;;;4066104;29;20058;-84
2023/07/07 08:50:07;;;;;;;;;;;21.40;55.90;;;;;;4064832;29;19922;-83
2023/07/07 08:52:35;;;;;;;;;;;21.50;55.20;;;;;;4065833;29;19974;-84
2023/07/07 08:55:01;;;;;;;;;;;21.50;54.50;;;;;;4064699;29;20390;-83
2023/07/07 08:57:24;;;;;;;;;;;21.60;55.00;;;;;;4059160;29;19943;-84
2023/07/07 08:59:52;;;;;;;;;;;21.60;55.80;;;;;;4060772;29;19922;-83
2023/07/07 09:02:14;;;;;;;;;;;21.60;55.30;;;;;;4078209;28;19927;-84
2023/07/07 09:04:55;;;;;;;;;;;21.70;55.20;;;;;;4083730;28;19932;-83
2023/07/07 09:07:17;;;;;;;;;;;21.80;55.00;;;;;;4070816;28;19979;-84
2023/07/07 09:09:45;;;;;;;;;;;21.90;52.70;;;;;;4086682;28;19999;-83
2023/07/07 09:12:24;;;;;;;;;;;22.00;54.00;;;;;;4084740;28;19948;-83
2023/07/07 09:14:45;;;;;;;;;;;22.10;54.20;;;;;;4083683;28;19918;-83
2023/07/07 09:17:34;;;;;;;;;;;22.10;53.70;;;;;;4046386;29;19919;-82
2023/07/07 09:19:36;;;;;;;;;;;22.20;53.60;;;;;;3997242;29;20077;-83
2023/07/07 09:21:54;;;;;;;;;;;22.30;53.20;;;;;;3995953;29;19913;-82
2023/07/07 09:23:57;;;;;;;;;;;22.30;53.40;;;;;;3999950;29;19916;-83
2023/07/07 09:26:02;;;;;;;;;;;22.40;53.20;;;;;;3998178;29;19925;-82
2023/07/07 09:28:05;;;;;;;;;;;22.50;52.60;;;;;;3986457;29;19917;-84
2023/07/07 09:30:13;;;;;;;;;;;22.60;51.80;;;;;;3997596;29;19926;-82
2023/07/07 09:32:34;;;;;;;;;;;22.60;50.50;;;;;;3996274;29;19917;-83
2023/07/07 09:34:41;;;;;;;;;;;22.70;49.80;;;;;;3998740;29;20382;-82
2023/07/07 09:37:05;;;;;;;;;;;22.70;50.20;;;;;;4000338;29;19920;-83
2023/07/07 09:39:26;;;;;;;;;;;22.80;50.80;;;;;;3980936;29;20107;-82
2023/07/07 09:41:41;;;;;;;;;;;22.80;50.80;;;;;;3996186;29;19916;-82
2023/07/07 09:44:18;;;;;;;;;;;22.80;50.60;;;;;;3991778;29;19920;-83
2023/07/07 09:46:52;;;;;;;;;;;22.90;51.30;;;;;;3997627;29;19994;-83
2023/07/07 09:49:32;;;;;;;;;;;22.90;50.90;;;;;;4000621;29;20000;-85
2023/07/07 09:52:07;;;;;;;;;;;23.00;50.40;;;;;;3999958;29;19925;-83
2023/07/07 09:54:27;;;;;;;;;;;23.00;50.60;;;;;;3997129;29;19932;-82
2023/07/07 09:56:50;;;;;;;;;;;23.00;50.50;;;;;;4052903;29;19955;-84
2023/07/07 09:59:16;;;;;;;;;;;22.90;50.40;;;;;;4060480;29;19919;-83
2023/07/07 10:01:37;;;;;;;;;;;22.90;50.80;;;;;;4049864;29;19923;-83
2023/07/07 10:03:59;;;;;;;;;;;22.90;50.40;;;;;;4051004;29;19926;-83
2023/07/07 10:06:38;;;;;;;;;;;22.90;50.40;;;;;;4064142;29;19973;-84
2023/07/07 10:08:59;;;;;;;;;;;23.00;50.50;;;;;;4051187;29;20370;-83
2023/07/07 10:11:21;;;;;;;;;;;22.90;49.30;;;;;;4064938;29;19915;-83
2023/07/07 10:13:44;;;;;;;;;;;23.00;50.00;;;;;;4059318;29;19930;-84
2023/07/07 10:16:06;;;;;;;;;;;23.00;50.40;;;;;;4049765;29;19923;-83
2023/07/07 10:18:28;;;;;;;;;;;23.00;50.50;;;;;;4046356;29;19915;-83
2023/07/07 10:20:49;;;;;;;;;;;23.10;50.10;;;;;;4065666;29;19915;-83
2023/07/07 10:23:10;;;;;;;;;;;23.10;50.30;;;;;;4050143;29;19958;-83
2023/07/07 10:25:32;;;;;;;;;;;23.10;49.20;;;;;;4061782;29;19927;-85
2023/07/07 10:27:53;;;;;;;;;;;23.10;48.70;;;;;;4058480;29;19919;-82
2023/07/07 10:30:14;;;;;;;;;;;23.20;48.50;;;;;;4064906;29;19925;-83
2023/07/07 10:32:35;;;;;;;;;;;23.10;48.90;;;;;;4061069;29;19915;-82
2023/07/07 10:35:01;;;;;;;;;;;23.20;49.00;;;;;;4062132;29;19915;-84
2023/07/07 10:37:27;;;;;;;;;;;23.30;48.70;;;;;;4060553;29;19922;-84
2023/07/07 10:39:51;;;;;;;;;;;23.30;48.40;;;;;;4063755;29;19925;-84
2023/07/07 10:42:11;;;;;;;;;;;23.40;48.70;;;;;;4049992;29;19916;-83
2023/07/07 10:44:32;;;;;;;;;;;23.40;48.10;;;;;;4061508;29;19978;-84
2023/07/07 10:46:53;;;;;;;;;;;23.50;47.50;;;;;;4060670;29;20504;-84
2023/07/07 10:49:15;;;;;;;;;;;23.60;47.80;;;;;;4064411;29;19926;-83
2023/07/07 10:51:39;;;;;;;;;;;23.60;48.00;;;;;;4063448;29;19927;-84
2023/07/07 10:54:24;;;;;;;;;;;23.70;47.60;;;;;;4066375;29;19919;-83
2023/07/07 10:56:46;;;;;;;;;;;23.70;45.40;;;;;;4064762;29;20542;-85
2023/07/07 10:59:18;;;;;;;;;;;23.70;46.20;;;;;;4064281;29;19919;-85
2023/07/07 11:02:01;;;;;;;;;;;23.80;47.40;;;;;;4051356;29;19923;-84
2023/07/07 11:04:21;;;;;;;;;;;23.80;47.30;;;;;;4060450;29;19922;-84
2023/07/07 11:06:52;;;;;;;;;;;23.90;47.20;;;;;;4064968;29;19922;-84
2023/07/07 11:09:20;;;;;;;;;;;23.90;46.70;;;;;;4064367;29;19958;-84
2023/07/07 11:11:43;;;;;;;;;;;23.90;46.10;;;;;;4059592;29;19955;-83
2023/07/07 11:13:44;;;;;;;;;;;23.90;46.10;;;;;;4061543;29;19962;-83
2023/07/07 11:15:53;;;;;;;;;;;23.90;46.40;;;;;;4062603;29;19915;-83
2023/07/07 11:18:01;;;;;;;;;;;23.80;46.40;;;;;;4062674;29;19915;-84
2023/07/07 11:20:01;;;;;;;;;;;23.80;46.60;;;;;;4060898;29;19970;-84
2023/07/07 11:22:31;;;;;;;;;;;23.80;47.00;;;;;;4062153;29;19916;-85
2023/07/07 11:24:54;;;;;;;;;;;23.80;47.00;;;;;;4061253;29;19926;-84
2023/07/07 11:27:36;;;;;;;;;;;23.90;46.50;;;;;;4057813;29;19923;-84
2023/07/07 11:30:14;;;;;;;;;;;23.90;47.00;;;;;;4059413;29;20317;-84
2023/07/07 11:32:38;;;;;;;;;;;24.00;46.20;;;;;;4059911;29;19915;-84
2023/07/07 11:34:59;;;;;;;;;;;24.00;46.50;;;;;;4060493;29;20002;-84
2023/07/07 11:37:47;;;;;;;;;;;24.10;46.50;;;;;;4057776;29;19919;-86
2023/07/07 11:40:37;;;;;;;;;;;24.10;46.10;;;;;;4173887;23;19925;-83
2023/07/07 11:43:00;;;;;;;;;;;24.10;46.20;;;;;;4055079;29;20387;-84
2023/07/07 11:45:48;;;;;;;;;;;24.10;45.90;;;;;;4041921;29;20039;-83
2023/07/07 11:48:09;;;;;;;;;;;24.10;45.80;;;;;;4002488;29;20479;-83
2023/07/07 11:50:48;;;;;;;;;;;24.10;45.60;;;;;;4019367;29;19916;-84
2023/07/07 11:53:22;;;;;;;;;;;24.10;45.00;;;;;;4015722;29;20039;-84
2023/07/07 11:56:09;;;;;;;;;;;24.10;45.20;;;;;;4016903;29;20020;-83
2023/07/07 11:58:48;;;;;;;;;;;24.20;45.40;;;;;;4005543;29;19945;-83
2023/07/07 12:01:15;;;;;;;;;;;24.20;44.70;;;;;;4014610;29;19995;-83
2023/07/07 12:03:35;;;;;;;;;;;24.20;46.20;;;;;;4018768;29;19924;-83
2023/07/07 12:05:59;;;;;;;;;;;24.30;46.30;;;;;;4015306;29;19985;-83
2023/07/07 12:08:22;;;;;;;;;;;24.30;46.50;;;;;;4016001;29;19916;-83
2023/07/07 12:10:44;;;;;;;;;;;24.40;46.20;;;;;;4017612;29;19967;-84
2023/07/07 12:13:10;;;;;;;;;;;24.50;46.20;;;;;;4014508;29;19960;-83
2023/07/07 12:15:33;;;;;;;;;;;24.50;46.10;;;;;;4015780;29;20460;-83
2023/07/07 12:17:39;;;;;;;;;;;24.60;46.90;;;;;;4020306;29;19926;-82
2023/07/07 12:19:44;;;;;;;;;;;24.70;44.50;;;;;;4032483;29;19920;-84
2023/07/07 12:21:46;;;;;;;;;;;24.80;45.20;;;;;;4033090;29;19967;-84
2023/07/07 12:23:56;;;;;;;;;;;24.80;45.50;;;;;;4032855;29;19924;-84
2023/07/07 12:26:23;;;;;;;;;;;24.90;45.90;;;;;;4049018;29;19923;-84
2023/07/07 12:28:24;;;;;;;;;;;24.90;44.80;;;;;;4042590;29;19923;-83
2023/07/07 12:30:36;;;;;;;;;;;24.90;45.00;;;;;;4038738;29;20027;-83
2023/07/07 12:32:37;;;;;;;;;;;24.90;45.20;;;;;;4043502;29;19928;-84
2023/07/07 12:34:42;;;;;;;;;;;24.90;45.20;;;;;;4027244;29;19930;-84
2023/07/07 12:36:46;;;;;;;;;;;25.00;44.90;;;;;;4019542;29;19931;-85
2023/07/07 12:39:09;;;;;;;;;;;25.00;44.90;;;;;;4050713;29;19920;-83
2023/07/07 12:41:13;;;;;;;;;;;25.00;42.80;;;;;;4043642;29;20018;-83
2023/07/07 12:43:35;;;;;;;;;;;25.00;42.30;;;;;;4049337;29;19920;-84
2023/07/07 12:45:59;;;;;;;;;;;24.90;40.50;;;;;;4048741;29;20459;-84
2023/07/07 12:48:01;;;;;;;;;;;25.00;42.20;;;;;;4047869;29;19920;-84
2023/07/07 12:50:25;;;;;;;;;;;25.10;43.20;;;;;;4050387;29;19923;-84
2023/07/07 12:52:53;;;;;;;;;;;25.10;42.50;;;;;;4049878;29;19924;-84
2023/07/07 12:55:20;;;;;;;;;;;25.10;41.90;;;;;;4048901;29;19920;-84
2023/07/07 12:57:56;;;;;;;;;;;25.20;42.30;;;;;;4031141;29;20023;-84
2023/07/07 13:00:35;;;;;;;;;;;25.30;43.40;;;;;;4042621;29;19919;-84
2023/07/07 13:03:02;;;;;;;;;;;25.30;39.70;;;;;;4032704;29;19919;-83
2023/07/07 13:05:23;;;;;;;;;;;25.30;40.10;;;;;;4045768;29;20038;-83
2023/07/07 13:07:57;;;;;;;;;;;25.30;41.20;;;;;;4047345;29;19923;-83
2023/07/07 13:10:45;;;;;;;;;;;25.40;40.00;;;;;;4052182;29;19924;-82
2023/07/07 13:13:23;;;;;;;;;;;25.40;40.50;;;;;;4045087;29;19927;-85
2023/07/07 13:15:51;;;;;;;;;;;25.40;41.60;;;;;;4048849;29;20006;-83
2023/07/07 13:17:53;;;;;;;;;;;25.40;40.50;;;;;;4050210;29;19923;-84
2023/07/07 13:20:05;;;;;;;;;;;25.40;41.00;;;;;;4032790;29;19924;-85
2023/07/07 13:22:39;;;;;;;;;;;25.40;41.10;;;;;;4033519;29;21533;-85
2023/07/07 13:24:46;;;;;;;;;;;25.40;40.50;;;;;;4022055;29;19915;-85
2023/07/07 13:27:17;;;;;;;;;;;25.40;37.30;;;;;;4052660;29;20018;-84
2023/07/07 13:29:38;;;;;;;;;;;25.40;40.20;;;;;;4051549;29;19944;-83
2023/07/07 13:31:59;;;;;;;;;;;25.40;37.30;;;;;;4035516;29;19996;-83
2023/07/07 13:33:59;;;;;;;;;;;25.40;39.40;;;;;;4036806;29;19919;-85
2023/07/07 13:36:01;;;;;;;;;;;25.40;36.00;;;;;;4033950;29;19919;-83
2023/07/07 13:38:23;;;;;;;;;;;25.40;36.80;;;;;;4048019;29;19919;-84
2023/07/07 13:40:44;;;;;;;;;;;25.40;38.20;;;;;;4048753;29;19919;-83